< < Back
Terminal Aerodrome Forecast


Current Version              Previous Versions:   1  2  3  4  5  6  7  8  9  

Terminal Aerodrome Forecast

099
FTUS42 KCHS 230500
TAFSAV
TAF
KSAV 230529Z 2306/2406 25004KT 4SM BR SCT100
      TEMPO 2306/2308 2SM BR FEW004
     FM230800 30005KT 2SM BR SCT004
      TEMPO 2309/2312 1/2SM FG BKN002
     FM231230 34008KT P6SM FEW010
     FM231600 32008KT P6SM FEW040
     FM232100 12008KT P6SM SKC=



Latest METAR

746
SAUS80 KWBC 231800 RRA
MTRSAV
METAR KSAV 231753Z 30009KT 10SM FEW040 28/13 A2987 RMK AO2 SLP112
T02780128 10278 20172 58017


USA.gov is the U.S. government's official web portal to all federal, state and local government web resources and services.